sensor_id;sensor_type;location;lat;lon;timestamp;P1;durP1;ratioP1;P2;durP2;ratioP2
76833;SDS011;65793;42.678;23.332;2023-02-15T00:00:26;43.05;;;26.85;;
76833;SDS011;65793;42.678;23.332;2023-02-15T00:03:27;44.60;;;28.83;;
76833;SDS011;65793;42.678;23.332;2023-02-15T00:06:27;43.33;;;27.60;;
76833;SDS011;65793;42.678;23.332;2023-02-15T00:09:30;48.92;;;27.10;;
76833;SDS011;65793;42.678;23.332;2023-02-15T00:12:30;33.85;;;21.33;;
76833;SDS011;65793;42.678;23.332;2023-02-15T00:15:31;32.15;;;19.40;;
76833;SDS011;65793;42.678;23.332;2023-02-15T00:18:31;39.78;;;25.92;;
76833;SDS011;65793;42.678;23.332;2023-02-15T00:21:32;45.55;;;30.65;;
76833;SDS011;65793;42.678;23.332;2023-02-15T00:24:35;50.50;;;29.52;;
76833;SDS011;65793;42.678;23.332;2023-02-15T00:27:36;47.92;;;30.90;;
76833;SDS011;65793;42.678;23.332;2023-02-15T00:30:36;38.85;;;25.70;;
76833;SDS011;65793;42.678;23.332;2023-02-15T00:33:37;42.63;;;25.98;;
76833;SDS011;65793;42.678;23.332;2023-02-15T00:36:38;39.13;;;25.50;;
76833;SDS011;65793;42.678;23.332;2023-02-15T00:39:41;34.50;;;21.45;;
76833;SDS011;65793;42.678;23.332;2023-02-15T00:42:45;40.47;;;25.73;;
76833;SDS011;65793;42.678;23.332;2023-02-15T00:45:57;39.35;;;24.65;;
76833;SDS011;65793;42.678;23.332;2023-02-15T00:49:02;42.08;;;26.25;;
76833;SDS011;65793;42.678;23.332;2023-02-15T00:52:14;24.95;;;18.38;;
76833;SDS011;65793;42.678;23.332;2023-02-15T00:55:26;38.47;;;25.63;;
76833;SDS011;65793;42.678;23.332;2023-02-15T00:58:26;31.17;;;21.95;;
76833;SDS011;65793;42.678;23.332;2023-02-15T01:01:27;43.33;;;28.15;;
76833;SDS011;65793;42.678;23.332;2023-02-15T01:04:27;40.22;;;25.67;;
76833;SDS011;65793;42.678;23.332;2023-02-15T01:07:28;30.63;;;18.98;;
76833;SDS011;65793;42.678;23.332;2023-02-15T01:10:30;32.40;;;20.15;;
76833;SDS011;65793;42.678;23.332;2023-02-15T01:13:31;36.03;;;24.08;;
76833;SDS011;65793;42.678;23.332;2023-02-15T01:16:31;36.47;;;22.83;;
76833;SDS011;65793;42.678;23.332;2023-02-15T01:19:32;37.78;;;24.25;;
76833;SDS011;65793;42.678;23.332;2023-02-15T01:22:33;35.45;;;24.45;;
76833;SDS011;65793;42.678;23.332;2023-02-15T01:25:35;30.80;;;18.73;;
76833;SDS011;65793;42.678;23.332;2023-02-15T01:28:36;36.05;;;22.90;;
76833;SDS011;65793;42.678;23.332;2023-02-15T01:31:37;46.83;;;25.30;;
76833;SDS011;65793;42.678;23.332;2023-02-15T01:34:37;38.55;;;21.48;;
76833;SDS011;65793;42.678;23.332;2023-02-15T01:37:38;32.40;;;19.90;;
76833;SDS011;65793;42.678;23.332;2023-02-15T01:40:40;29.30;;;20.20;;
76833;SDS011;65793;42.678;23.332;2023-02-15T01:43:41;29.65;;;21.40;;
76833;SDS011;65793;42.678;23.332;2023-02-15T01:46:43;28.08;;;18.90;;
76833;SDS011;65793;42.678;23.332;2023-02-15T01:49:52;30.40;;;21.40;;
76833;SDS011;65793;42.678;23.332;2023-02-15T01:53:01;40.13;;;26.00;;
76833;SDS011;65793;42.678;23.332;2023-02-15T01:56:09;41.60;;;27.27;;
76833;SDS011;65793;42.678;23.332;2023-02-15T01:59:13;32.42;;;21.63;;
76833;SDS011;65793;42.678;23.332;2023-02-15T02:02:17;26.13;;;16.05;;
76833;SDS011;65793;42.678;23.332;2023-02-15T02:05:19;41.40;;;26.27;;
76833;SDS011;65793;42.678;23.332;2023-02-15T02:08:19;40.78;;;24.73;;
76833;SDS011;65793;42.678;23.332;2023-02-15T02:11:21;36.60;;;23.02;;
76833;SDS011;65793;42.678;23.332;2023-02-15T02:14:22;35.28;;;22.15;;
76833;SDS011;65793;42.678;23.332;2023-02-15T02:17:26;30.55;;;18.95;;
76833;SDS011;65793;42.678;23.332;2023-02-15T02:20:52;37.35;;;24.48;;
76833;SDS011;65793;42.678;23.332;2023-02-15T02:24:10;33.00;;;22.45;;
76833;SDS011;65793;42.678;23.332;2023-02-15T02:27:30;34.95;;;20.80;;
76833;SDS011;65793;42.678;23.332;2023-02-15T02:30:49;35.00;;;23.17;;
76833;SDS011;65793;42.678;23.332;2023-02-15T02:34:02;32.35;;;20.42;;
76833;SDS011;65793;42.678;23.332;2023-02-15T02:37:14;32.78;;;20.98;;
76833;SDS011;65793;42.678;23.332;2023-02-15T02:40:24;31.90;;;20.45;;
76833;SDS011;65793;42.678;23.332;2023-02-15T02:43:32;27.48;;;17.23;;
76833;SDS011;65793;42.678;23.332;2023-02-15T02:46:40;28.10;;;19.33;;
76833;SDS011;65793;42.678;23.332;2023-02-15T02:49:51;35.22;;;21.55;;
76833;SDS011;65793;42.678;23.332;2023-02-15T02:52:53;23.25;;;17.33;;
76833;SDS011;65793;42.678;23.332;2023-02-15T02:55:55;35.95;;;23.13;;
76833;SDS011;65793;42.678;23.332;2023-02-15T02:58:58;34.78;;;21.40;;
76833;SDS011;65793;42.678;23.332;2023-02-15T03:02:03;33.50;;;24.48;;
76833;SDS011;65793;42.678;23.332;2023-02-15T03:05:11;24.17;;;16.17;;
76833;SDS011;65793;42.678;23.332;2023-02-15T03:08:16;37.47;;;23.92;;
76833;SDS011;65793;42.678;23.332;2023-02-15T03:11:18;35.72;;;22.05;;
76833;SDS011;65793;42.678;23.332;2023-02-15T03:14:19;41.42;;;19.45;;
76833;SDS011;65793;42.678;23.332;2023-02-15T03:17:20;30.80;;;22.58;;
76833;SDS011;65793;42.678;23.332;2023-02-15T03:20:25;25.42;;;16.98;;
76833;SDS011;65793;42.678;23.332;2023-02-15T03:23:29;37.08;;;23.60;;
76833;SDS011;65793;42.678;23.332;2023-02-15T03:26:32;34.53;;;21.55;;
76833;SDS011;65793;42.678;23.332;2023-02-15T03:29:34;32.00;;;21.70;;
76833;SDS011;65793;42.678;23.332;2023-02-15T03:32:36;38.85;;;21.85;;
76833;SDS011;65793;42.678;23.332;2023-02-15T03:35:41;39.35;;;26.83;;
76833;SDS011;65793;42.678;23.332;2023-02-15T03:38:49;24.50;;;16.90;;
76833;SDS011;65793;42.678;23.332;2023-02-15T03:41:55;33.17;;;21.90;;
76833;SDS011;65793;42.678;23.332;2023-02-15T03:45:01;31.35;;;21.13;;
76833;SDS011;65793;42.678;23.332;2023-02-15T03:48:05;34.75;;;22.77;;
76833;SDS011;65793;42.678;23.332;2023-02-15T03:51:09;35.45;;;23.67;;
76833;SDS011;65793;42.678;23.332;2023-02-15T03:54:18;31.45;;;20.77;;
76833;SDS011;65793;42.678;23.332;2023-02-15T03:57:23;21.52;;;15.98;;
76833;SDS011;65793;42.678;23.332;2023-02-15T04:00:24;33.80;;;20.30;;
76833;SDS011;65793;42.678;23.332;2023-02-15T04:03:26;31.98;;;17.15;;
76833;SDS011;65793;42.678;23.332;2023-02-15T04:06:33;31.63;;;20.02;;
76833;SDS011;65793;42.678;23.332;2023-02-15T04:09:34;28.08;;;19.60;;
76833;SDS011;65793;42.678;23.332;2023-02-15T04:12:35;33.67;;;23.38;;
76833;SDS011;65793;42.678;23.332;2023-02-15T04:15:35;33.55;;;21.77;;
76833;SDS011;65793;42.678;23.332;2023-02-15T04:18:36;25.70;;;17.10;;
76833;SDS011;65793;42.678;23.332;2023-02-15T04:21:39;33.53;;;20.30;;
76833;SDS011;65793;42.678;23.332;2023-02-15T04:24:40;33.63;;;23.40;;
76833;SDS011;65793;42.678;23.332;2023-02-15T04:27:41;27.50;;;13.88;;
76833;SDS011;65793;42.678;23.332;2023-02-15T04:30:43;26.52;;;19.83;;
76833;SDS011;65793;42.678;23.332;2023-02-15T04:33:44;25.98;;;21.25;;
76833;SDS011;65793;42.678;23.332;2023-02-15T04:36:46;28.90;;;19.17;;
76833;SDS011;65793;42.678;23.332;2023-02-15T04:39:46;30.13;;;18.80;;
76833;SDS011;65793;42.678;23.332;2023-02-15T04:42:47;34.50;;;22.05;;
76833;SDS011;65793;42.678;23.332;2023-02-15T04:45:48;35.15;;;24.38;;
76833;SDS011;65793;42.678;23.332;2023-02-15T04:48:49;33.28;;;20.95;;
76833;SDS011;65793;42.678;23.332;2023-02-15T04:51:51;23.92;;;16.23;;
76833;SDS011;65793;42.678;23.332;2023-02-15T04:54:51;32.83;;;22.38;;
76833;SDS011;65793;42.678;23.332;2023-02-15T04:57:52;35.80;;;24.95;;
76833;SDS011;65793;42.678;23.332;2023-02-15T05:00:54;29.00;;;18.25;;
76833;SDS011;65793;42.678;23.332;2023-02-15T05:03:55;32.20;;;21.33;;
76833;SDS011;65793;42.678;23.332;2023-02-15T05:06:57;35.90;;;21.00;;
76833;SDS011;65793;42.678;23.332;2023-02-15T05:09:58;30.92;;;22.60;;
76833;SDS011;65793;42.678;23.332;2023-02-15T05:12:58;20.15;;;13.48;;
76833;SDS011;65793;42.678;23.332;2023-02-15T05:15:59;31.10;;;19.83;;
76833;SDS011;65793;42.678;23.332;2023-02-15T05:18:59;32.63;;;20.10;;
76833;SDS011;65793;42.678;23.332;2023-02-15T05:22:01;28.65;;;18.95;;
76833;SDS011;65793;42.678;23.332;2023-02-15T05:25:02;34.97;;;19.70;;
76833;SDS011;65793;42.678;23.332;2023-02-15T05:28:02;34.47;;;23.63;;
76833;SDS011;65793;42.678;23.332;2023-02-15T05:31:04;36.63;;;22.65;;
76833;SDS011;65793;42.678;23.332;2023-02-15T05:34:06;31.85;;;20.95;;
76833;SDS011;65793;42.678;23.332;2023-02-15T05:37:08;31.27;;;20.65;;
76833;SDS011;65793;42.678;23.332;2023-02-15T05:40:09;34.08;;;22.67;;
76833;SDS011;65793;42.678;23.332;2023-02-15T05:43:10;27.05;;;17.10;;
76833;SDS011;65793;42.678;23.332;2023-02-15T05:46:11;21.70;;;13.73;;
76833;SDS011;65793;42.678;23.332;2023-02-15T05:49:12;25.52;;;17.67;;
76833;SDS011;65793;42.678;23.332;2023-02-15T05:52:14;36.28;;;21.83;;
76833;SDS011;65793;42.678;23.332;2023-02-15T05:55:14;31.52;;;20.25;;
76833;SDS011;65793;42.678;23.332;2023-02-15T05:58:15;31.70;;;21.65;;
76833;SDS011;65793;42.678;23.332;2023-02-15T06:01:17;25.80;;;15.07;;
76833;SDS011;65793;42.678;23.332;2023-02-15T06:04:24;21.05;;;16.52;;
76833;SDS011;65793;42.678;23.332;2023-02-15T23:08:10;63.97;;;38.83;;
76833;SDS011;65793;42.678;23.332;2023-02-15T23:11:11;65.72;;;36.97;;
76833;SDS011;65793;42.678;23.332;2023-02-15T23:14:15;62.10;;;36.50;;
76833;SDS011;65793;42.678;23.332;2023-02-15T23:17:23;67.05;;;38.40;;
76833;SDS011;65793;42.678;23.332;2023-02-15T23:20:24;67.32;;;37.10;;
76833;SDS011;65793;42.678;23.332;2023-02-15T23:23:28;67.22;;;38.83;;
76833;SDS011;65793;42.678;23.332;2023-02-15T23:26:30;61.38;;;35.38;;
76833;SDS011;65793;42.678;23.332;2023-02-15T23:29:31;61.17;;;36.58;;
76833;SDS011;65793;42.678;23.332;2023-02-15T23:32:31;65.10;;;39.15;;
76833;SDS011;65793;42.678;23.332;2023-02-15T23:35:32;58.40;;;35.38;;
76833;SDS011;65793;42.678;23.332;2023-02-15T23:38:34;58.78;;;36.03;;
76833;SDS011;65793;42.678;23.332;2023-02-15T23:41:35;68.72;;;40.72;;
76833;SDS011;65793;42.678;23.332;2023-02-15T23:44:35;65.80;;;37.17;;
76833;SDS011;65793;42.678;23.332;2023-02-15T23:47:37;59.67;;;35.95;;
76833;SDS011;65793;42.678;23.332;2023-02-15T23:50:37;66.03;;;38.63;;
76833;SDS011;65793;42.678;23.332;2023-02-15T23:53:39;59.75;;;35.97;;
76833;SDS011;65793;42.678;23.332;2023-02-15T23:56:40;62.97;;;36.90;;
76833;SDS011;65793;42.678;23.332;2023-02-15T23:59:41;60.65;;;36.35;;
